Terminal Aerodrome Forecast
Issued by NWS

Home | Current Version | Previous Version | Text Only | Print | Product List | Glossary On
Versions: 1 2 3 4 5 6 7 8 9 10 11 12
557
FTUS42 KMLB 291723
TAFSUA
TAF
KSUA 291723Z 2918/3018 10010KT P6SM SCT040 SCT250
     FM300300 19004KT P6SM FEW050 SCT250=

USA.gov is the U.S. government's official web portal to all federal, state and local government web resources and services.